sensor_id;sensor_type;location;lat;lon;timestamp;P1;durP1;ratioP1;P2;durP2;ratioP2
69970;SDS011;57301;50.328;8.542;2023-12-07T00:00:23;25.40;;;14.90;;
69970;SDS011;57301;50.328;8.542;2023-12-07T00:02:50;25.35;;;14.55;;
69970;SDS011;57301;50.328;8.542;2023-12-07T00:05:16;23.95;;;13.80;;
69970;SDS011;57301;50.328;8.542;2023-12-07T00:07:43;22.00;;;12.37;;
69970;SDS011;57301;50.328;8.542;2023-12-07T00:10:09;22.13;;;12.65;;
69970;SDS011;57301;50.328;8.542;2023-12-07T00:12:36;19.95;;;12.57;;
69970;SDS011;57301;50.328;8.542;2023-12-07T00:15:03;26.33;;;12.63;;
69970;SDS011;57301;50.328;8.542;2023-12-07T00:17:30;21.67;;;12.20;;
69970;SDS011;57301;50.328;8.542;2023-12-07T00:19:56;27.10;;;14.50;;
69970;SDS011;57301;50.328;8.542;2023-12-07T00:22:23;22.73;;;12.20;;
69970;SDS011;57301;50.328;8.542;2023-12-07T00:24:52;22.13;;;12.25;;
69970;SDS011;57301;50.328;8.542;2023-12-07T00:27:18;23.27;;;12.60;;
69970;SDS011;57301;50.328;8.542;2023-12-07T00:29:45;20.27;;;11.73;;
69970;SDS011;57301;50.328;8.542;2023-12-07T00:32:12;20.87;;;12.37;;
69970;SDS011;57301;50.328;8.542;2023-12-07T00:34:38;19.15;;;10.88;;
69970;SDS011;57301;50.328;8.542;2023-12-07T00:37:05;20.55;;;11.68;;
69970;SDS011;57301;50.328;8.542;2023-12-07T00:39:31;19.40;;;11.00;;
69970;SDS011;57301;50.328;8.542;2023-12-07T00:41:58;20.40;;;10.85;;
69970;SDS011;57301;50.328;8.542;2023-12-07T00:44:24;20.70;;;11.07;;
69970;SDS011;57301;50.328;8.542;2023-12-07T00:46:51;17.13;;;10.45;;
69970;SDS011;57301;50.328;8.542;2023-12-07T00:49:17;17.55;;;10.43;;
69970;SDS011;57301;50.328;8.542;2023-12-07T00:51:44;18.55;;;9.88;;
69970;SDS011;57301;50.328;8.542;2023-12-07T00:54:10;20.50;;;9.70;;
69970;SDS011;57301;50.328;8.542;2023-12-07T00:56:37;19.47;;;9.97;;
69970;SDS011;57301;50.328;8.542;2023-12-07T00:59:03;17.35;;;10.13;;
69970;SDS011;57301;50.328;8.542;2023-12-07T01:01:30;19.05;;;11.75;;
69970;SDS011;57301;50.328;8.542;2023-12-07T01:03:57;21.33;;;11.90;;
69970;SDS011;57301;50.328;8.542;2023-12-07T01:06:23;22.05;;;11.65;;
69970;SDS011;57301;50.328;8.542;2023-12-07T01:08:50;17.87;;;10.53;;
69970;SDS011;57301;50.328;8.542;2023-12-07T01:11:16;16.92;;;10.02;;
69970;SDS011;57301;50.328;8.542;2023-12-07T01:13:43;17.45;;;10.90;;
69970;SDS011;57301;50.328;8.542;2023-12-07T01:16:09;18.85;;;11.13;;
69970;SDS011;57301;50.328;8.542;2023-12-07T01:18:36;19.52;;;11.05;;
69970;SDS011;57301;50.328;8.542;2023-12-07T01:21:03;21.83;;;10.53;;
69970;SDS011;57301;50.328;8.542;2023-12-07T01:23:30;20.85;;;11.13;;
69970;SDS011;57301;50.328;8.542;2023-12-07T01:25:57;23.42;;;10.68;;
69970;SDS011;57301;50.328;8.542;2023-12-07T01:28:26;16.85;;;9.60;;
69970;SDS011;57301;50.328;8.542;2023-12-07T01:30:53;19.15;;;9.75;;
69970;SDS011;57301;50.328;8.542;2023-12-07T01:33:20;16.97;;;9.37;;
69970;SDS011;57301;50.328;8.542;2023-12-07T01:35:48;19.40;;;9.85;;
69970;SDS011;57301;50.328;8.542;2023-12-07T01:38:14;13.60;;;7.82;;
69970;SDS011;57301;50.328;8.542;2023-12-07T01:40:41;14.52;;;8.18;;
69970;SDS011;57301;50.328;8.542;2023-12-07T01:43:09;12.70;;;7.32;;
69970;SDS011;57301;50.328;8.542;2023-12-07T01:45:36;13.10;;;7.90;;
69970;SDS011;57301;50.328;8.542;2023-12-07T01:48:02;15.07;;;7.40;;
69970;SDS011;57301;50.328;8.542;2023-12-07T01:50:29;17.92;;;8.73;;
69970;SDS011;57301;50.328;8.542;2023-12-07T01:53:00;14.20;;;7.95;;
69970;SDS011;57301;50.328;8.542;2023-12-07T01:55:30;13.63;;;7.60;;
69970;SDS011;57301;50.328;8.542;2023-12-07T01:57:58;16.17;;;8.53;;
69970;SDS011;57301;50.328;8.542;2023-12-07T02:00:26;17.17;;;8.13;;
69970;SDS011;57301;50.328;8.542;2023-12-07T02:02:53;20.30;;;9.02;;
69970;SDS011;57301;50.328;8.542;2023-12-07T02:05:20;14.50;;;8.55;;
69970;SDS011;57301;50.328;8.542;2023-12-07T02:07:48;16.48;;;9.10;;
69970;SDS011;57301;50.328;8.542;2023-12-07T02:10:15;15.00;;;8.77;;
69970;SDS011;57301;50.328;8.542;2023-12-07T02:12:42;14.75;;;8.77;;
69970;SDS011;57301;50.328;8.542;2023-12-07T02:15:09;13.55;;;8.05;;
69970;SDS011;57301;50.328;8.542;2023-12-07T02:17:47;14.75;;;8.40;;
69970;SDS011;57301;50.328;8.542;2023-12-07T02:20:26;15.13;;;8.80;;
69970;SDS011;57301;50.328;8.542;2023-12-07T02:23:00;17.33;;;8.90;;
69970;SDS011;57301;50.328;8.542;2023-12-07T02:25:36;16.25;;;8.90;;
69970;SDS011;57301;50.328;8.542;2023-12-07T02:28:20;18.75;;;9.10;;
69970;SDS011;57301;50.328;8.542;2023-12-07T02:30:47;13.45;;;8.48;;
69970;SDS011;57301;50.328;8.542;2023-12-07T02:33:13;16.70;;;8.57;;
69970;SDS011;57301;50.328;8.542;2023-12-07T02:35:40;15.53;;;8.70;;
69970;SDS011;57301;50.328;8.542;2023-12-07T02:38:07;15.32;;;7.63;;
69970;SDS011;57301;50.328;8.542;2023-12-07T02:40:34;15.40;;;7.82;;
69970;SDS011;57301;50.328;8.542;2023-12-07T02:43:01;11.55;;;6.88;;
69970;SDS011;57301;50.328;8.542;2023-12-07T02:45:29;13.20;;;7.28;;
69970;SDS011;57301;50.328;8.542;2023-12-07T02:47:57;12.67;;;7.63;;
69970;SDS011;57301;50.328;8.542;2023-12-07T02:50:24;15.88;;;8.23;;
69970;SDS011;57301;50.328;8.542;2023-12-07T02:52:50;14.93;;;7.78;;
69970;SDS011;57301;50.328;8.542;2023-12-07T02:55:17;15.55;;;7.68;;
69970;SDS011;57301;50.328;8.542;2023-12-07T02:57:43;14.30;;;7.80;;
69970;SDS011;57301;50.328;8.542;2023-12-07T03:00:10;14.83;;;7.57;;
69970;SDS011;57301;50.328;8.542;2023-12-07T03:02:40;13.50;;;7.57;;
69970;SDS011;57301;50.328;8.542;2023-12-07T03:05:07;15.35;;;7.78;;
69970;SDS011;57301;50.328;8.542;2023-12-07T03:07:34;13.70;;;7.30;;
69970;SDS011;57301;50.328;8.542;2023-12-07T03:10:01;12.20;;;7.28;;
69970;SDS011;57301;50.328;8.542;2023-12-07T03:12:29;13.83;;;7.27;;
69970;SDS011;57301;50.328;8.542;2023-12-07T03:14:56;18.05;;;7.43;;
69970;SDS011;57301;50.328;8.542;2023-12-07T03:17:22;16.75;;;8.00;;
69970;SDS011;57301;50.328;8.542;2023-12-07T03:19:49;14.02;;;7.50;;
69970;SDS011;57301;50.328;8.542;2023-12-07T03:22:16;14.65;;;7.45;;
69970;SDS011;57301;50.328;8.542;2023-12-07T03:24:46;11.53;;;6.50;;
69970;SDS011;57301;50.328;8.542;2023-12-07T03:27:14;17.48;;;7.25;;
69970;SDS011;57301;50.328;8.542;2023-12-07T03:29:40;15.13;;;7.65;;
69970;SDS011;57301;50.328;8.542;2023-12-07T03:32:07;12.05;;;7.13;;
69970;SDS011;57301;50.328;8.542;2023-12-07T03:34:34;14.95;;;7.70;;
69970;SDS011;57301;50.328;8.542;2023-12-07T03:37:00;15.00;;;7.67;;
69970;SDS011;57301;50.328;8.542;2023-12-07T03:39:27;14.88;;;7.65;;
69970;SDS011;57301;50.328;8.542;2023-12-07T03:41:56;14.23;;;8.00;;
69970;SDS011;57301;50.328;8.542;2023-12-07T03:44:22;16.50;;;7.85;;
69970;SDS011;57301;50.328;8.542;2023-12-07T03:46:48;17.20;;;8.20;;
69970;SDS011;57301;50.328;8.542;2023-12-07T03:49:15;14.70;;;8.60;;
69970;SDS011;57301;50.328;8.542;2023-12-07T03:51:42;14.60;;;8.30;;
69970;SDS011;57301;50.328;8.542;2023-12-07T03:54:08;18.23;;;8.00;;
69970;SDS011;57301;50.328;8.542;2023-12-07T03:56:35;15.07;;;7.40;;
69970;SDS011;57301;50.328;8.542;2023-12-07T03:59:02;14.40;;;7.53;;
69970;SDS011;57301;50.328;8.542;2023-12-07T04:01:28;13.67;;;7.63;;
69970;SDS011;57301;50.328;8.542;2023-12-07T04:03:56;17.38;;;7.45;;
69970;SDS011;57301;50.328;8.542;2023-12-07T04:06:24;14.57;;;8.05;;
69970;SDS011;57301;50.328;8.542;2023-12-07T04:08:51;16.30;;;6.95;;
69970;SDS011;57301;50.328;8.542;2023-12-07T04:11:17;13.48;;;7.53;;
69970;SDS011;57301;50.328;8.542;2023-12-07T04:13:44;22.67;;;11.47;;
69970;SDS011;57301;50.328;8.542;2023-12-07T04:16:11;26.52;;;12.55;;
69970;SDS011;57301;50.328;8.542;2023-12-07T04:18:38;17.00;;;8.95;;
69970;SDS011;57301;50.328;8.542;2023-12-07T04:21:05;16.98;;;7.72;;
69970;SDS011;57301;50.328;8.542;2023-12-07T04:23:32;15.80;;;8.18;;
69970;SDS011;57301;50.328;8.542;2023-12-07T04:25:59;17.23;;;8.57;;
69970;SDS011;57301;50.328;8.542;2023-12-07T04:28:25;13.25;;;7.53;;
69970;SDS011;57301;50.328;8.542;2023-12-07T04:30:52;16.92;;;8.43;;
69970;SDS011;57301;50.328;8.542;2023-12-07T04:33:19;18.88;;;8.15;;
69970;SDS011;57301;50.328;8.542;2023-12-07T04:35:46;13.93;;;7.43;;
69970;SDS011;57301;50.328;8.542;2023-12-07T04:38:13;16.10;;;8.17;;
69970;SDS011;57301;50.328;8.542;2023-12-07T04:40:40;17.13;;;8.77;;
69970;SDS011;57301;50.328;8.542;2023-12-07T04:43:08;15.75;;;8.68;;
69970;SDS011;57301;50.328;8.542;2023-12-07T04:45:34;15.50;;;8.55;;
69970;SDS011;57301;50.328;8.542;2023-12-07T04:48:01;17.67;;;8.70;;
69970;SDS011;57301;50.328;8.542;2023-12-07T04:50:28;16.17;;;8.40;;
69970;SDS011;57301;50.328;8.542;2023-12-07T04:52:55;15.50;;;8.63;;
69970;SDS011;57301;50.328;8.542;2023-12-07T04:55:21;16.65;;;8.48;;
69970;SDS011;57301;50.328;8.542;2023-12-07T04:57:48;14.27;;;7.78;;
69970;SDS011;57301;50.328;8.542;2023-12-07T05:00:15;13.63;;;8.20;;
69970;SDS011;57301;50.328;8.542;2023-12-07T05:02:42;17.07;;;8.20;;
69970;SDS011;57301;50.328;8.542;2023-12-07T05:05:08;13.05;;;7.70;;
69970;SDS011;57301;50.328;8.542;2023-12-07T05:07:35;13.57;;;8.38;;
69970;SDS011;57301;50.328;8.542;2023-12-07T05:10:02;13.68;;;7.53;;
69970;SDS011;57301;50.328;8.542;2023-12-07T05:12:29;16.73;;;8.50;;
69970;SDS011;57301;50.328;8.542;2023-12-07T05:14:56;12.53;;;7.37;;
69970;SDS011;57301;50.328;8.542;2023-12-07T05:17:22;11.95;;;6.72;;
69970;SDS011;57301;50.328;8.542;2023-12-07T05:19:49;14.23;;;7.55;;
69970;SDS011;57301;50.328;8.542;2023-12-07T05:22:16;14.27;;;7.25;;
69970;SDS011;57301;50.328;8.542;2023-12-07T05:24:42;14.05;;;7.18;;
69970;SDS011;57301;50.328;8.542;2023-12-07T05:27:09;30.97;;;14.40;;
69970;SDS011;57301;50.328;8.542;2023-12-07T05:29:35;28.35;;;12.82;;
69970;SDS011;57301;50.328;8.542;2023-12-07T05:32:05;23.52;;;10.93;;
69970;SDS011;57301;50.328;8.542;2023-12-07T05:34:34;14.40;;;7.93;;
69970;SDS011;57301;50.328;8.542;2023-12-07T05:37:05;17.23;;;8.40;;
69970;SDS011;57301;50.328;8.542;2023-12-07T05:39:32;14.97;;;8.00;;
69970;SDS011;57301;50.328;8.542;2023-12-07T05:42:06;14.98;;;7.65;;
69970;SDS011;57301;50.328;8.542;2023-12-07T05:44:32;23.30;;;12.27;;
69970;SDS011;57301;50.328;8.542;2023-12-07T05:46:59;24.17;;;12.60;;
69970;SDS011;57301;50.328;8.542;2023-12-07T05:49:26;27.38;;;14.65;;
69970;SDS011;57301;50.328;8.542;2023-12-07T05:51:53;24.33;;;12.63;;
69970;SDS011;57301;50.328;8.542;2023-12-07T05:54:19;17.73;;;9.50;;
69970;SDS011;57301;50.328;8.542;2023-12-07T05:56:49;21.23;;;10.50;;
69970;SDS011;57301;50.328;8.542;2023-12-07T05:59:16;19.70;;;10.07;;
69970;SDS011;57301;50.328;8.542;2023-12-07T06:01:43;19.00;;;10.00;;
69970;SDS011;57301;50.328;8.542;2023-12-07T06:04:10;16.67;;;9.20;;
69970;SDS011;57301;50.328;8.542;2023-12-07T06:06:38;19.85;;;11.40;;
69970;SDS011;57301;50.328;8.542;2023-12-07T06:09:05;26.92;;;12.70;;
69970;SDS011;57301;50.328;8.542;2023-12-07T06:11:32;17.05;;;9.05;;
69970;SDS011;57301;50.328;8.542;2023-12-07T06:14:02;14.50;;;7.63;;
69970;SDS011;57301;50.328;8.542;2023-12-07T06:16:30;14.77;;;7.47;;
69970;SDS011;57301;50.328;8.542;2023-12-07T06:18:57;15.45;;;7.68;;
69970;SDS011;57301;50.328;8.542;2023-12-07T06:21:24;16.25;;;8.07;;
69970;SDS011;57301;50.328;8.542;2023-12-07T06:23:51;17.73;;;8.18;;
69970;SDS011;57301;50.328;8.542;2023-12-07T06:26:19;14.75;;;7.70;;
69970;SDS011;57301;50.328;8.542;2023-12-07T06:28:45;16.07;;;7.90;;
69970;SDS011;57301;50.328;8.542;2023-12-07T06:31:12;14.35;;;7.43;;
69970;SDS011;57301;50.328;8.542;2023-12-07T06:33:41;16.90;;;8.35;;
69970;SDS011;57301;50.328;8.542;2023-12-07T06:36:08;20.23;;;8.73;;
69970;SDS011;57301;50.328;8.542;2023-12-07T06:38:35;20.15;;;9.77;;
69970;SDS011;57301;50.328;8.542;2023-12-07T06:41:01;29.67;;;14.50;;
69970;SDS011;57301;50.328;8.542;2023-12-07T06:43:28;33.35;;;13.23;;
69970;SDS011;57301;50.328;8.542;2023-12-07T06:45:55;19.92;;;9.82;;
69970;SDS011;57301;50.328;8.542;2023-12-07T06:48:24;21.88;;;9.75;;
69970;SDS011;57301;50.328;8.542;2023-12-07T06:50:54;21.83;;;10.60;;
69970;SDS011;57301;50.328;8.542;2023-12-07T06:53:21;21.50;;;10.10;;
69970;SDS011;57301;50.328;8.542;2023-12-07T06:55:47;22.80;;;10.10;;
69970;SDS011;57301;50.328;8.542;2023-12-07T06:58:14;17.42;;;9.73;;
69970;SDS011;57301;50.328;8.542;2023-12-07T07:00:40;21.00;;;10.20;;
69970;SDS011;57301;50.328;8.542;2023-12-07T07:03:07;23.00;;;9.90;;
69970;SDS011;57301;50.328;8.542;2023-12-07T07:05:34;21.50;;;9.87;;
69970;SDS011;57301;50.328;8.542;2023-12-07T07:08:00;18.65;;;8.93;;
69970;SDS011;57301;50.328;8.542;2023-12-07T07:10:27;18.00;;;8.70;;
69970;SDS011;57301;50.328;8.542;2023-12-07T07:12:53;21.30;;;11.00;;
69970;SDS011;57301;50.328;8.542;2023-12-07T07:15:20;26.48;;;11.45;;
69970;SDS011;57301;50.328;8.542;2023-12-07T07:17:47;24.30;;;11.13;;
69970;SDS011;57301;50.328;8.542;2023-12-07T07:20:13;19.50;;;9.40;;
69970;SDS011;57301;50.328;8.542;2023-12-07T07:22:40;21.95;;;10.07;;
69970;SDS011;57301;50.328;8.542;2023-12-07T07:25:07;22.85;;;9.88;;
69970;SDS011;57301;50.328;8.542;2023-12-07T07:27:34;17.58;;;9.43;;
69970;SDS011;57301;50.328;8.542;2023-12-07T07:30:01;23.57;;;9.67;;
69970;SDS011;57301;50.328;8.542;2023-12-07T07:32:30;21.73;;;9.52;;
69970;SDS011;57301;50.328;8.542;2023-12-07T07:34:57;20.27;;;9.73;;
69970;SDS011;57301;50.328;8.542;2023-12-07T07:37:24;23.30;;;9.20;;
69970;SDS011;57301;50.328;8.542;2023-12-07T07:39:51;20.13;;;9.38;;
69970;SDS011;57301;50.328;8.542;2023-12-07T07:42:18;21.87;;;9.30;;
69970;SDS011;57301;50.328;8.542;2023-12-07T07:44:44;37.10;;;12.60;;
69970;SDS011;57301;50.328;8.542;2023-12-07T07:47:11;22.17;;;10.32;;
69970;SDS011;57301;50.328;8.542;2023-12-07T07:49:37;18.65;;;9.18;;
69970;SDS011;57301;50.328;8.542;2023-12-07T07:52:05;21.63;;;10.10;;
69970;SDS011;57301;50.328;8.542;2023-12-07T07:54:32;17.87;;;8.10;;
69970;SDS011;57301;50.328;8.542;2023-12-07T07:56:58;22.98;;;10.85;;
69970;SDS011;57301;50.328;8.542;2023-12-07T07:59:25;25.80;;;12.75;;
69970;SDS011;57301;50.328;8.542;2023-12-07T08:01:51;25.88;;;11.00;;
69970;SDS011;57301;50.328;8.542;2023-12-07T08:04:18;26.70;;;12.88;;
69970;SDS011;57301;50.328;8.542;2023-12-07T08:06:45;52.77;;;23.60;;
69970;SDS011;57301;50.328;8.542;2023-12-07T08:09:11;16.15;;;8.85;;
69970;SDS011;57301;50.328;8.542;2023-12-07T08:11:38;12.88;;;7.28;;
69970;SDS011;57301;50.328;8.542;2023-12-07T08:14:05;28.88;;;8.45;;
69970;SDS011;57301;50.328;8.542;2023-12-07T08:16:31;28.38;;;8.30;;
69970;SDS011;57301;50.328;8.542;2023-12-07T08:18:58;23.07;;;9.20;;
69970;SDS011;57301;50.328;8.542;2023-12-07T08:21:25;15.50;;;7.35;;
69970;SDS011;57301;50.328;8.542;2023-12-07T08:23:56;17.85;;;9.60;;
69970;SDS011;57301;50.328;8.542;2023-12-07T08:26:23;11.68;;;7.03;;
69970;SDS011;57301;50.328;8.542;2023-12-07T08:28:49;17.88;;;7.00;;
69970;SDS011;57301;50.328;8.542;2023-12-07T08:31:16;202.10;;;17.33;;
69970;SDS011;57301;50.328;8.542;2023-12-07T08:33:43;16.63;;;7.55;;
69970;SDS011;57301;50.328;8.542;2023-12-07T08:36:10;13.32;;;8.00;;
69970;SDS011;57301;50.328;8.542;2023-12-07T08:38:37;14.30;;;7.78;;
69970;SDS011;57301;50.328;8.542;2023-12-07T08:41:06;17.52;;;8.32;;
69970;SDS011;57301;50.328;8.542;2023-12-07T08:43:33;32.53;;;13.40;;
69970;SDS011;57301;50.328;8.542;2023-12-07T08:45:59;27.98;;;10.35;;
69970;SDS011;57301;50.328;8.542;2023-12-07T08:48:27;12.95;;;7.13;;
69970;SDS011;57301;50.328;8.542;2023-12-07T08:50:54;19.83;;;7.70;;
69970;SDS011;57301;50.328;8.542;2023-12-07T08:53:21;12.82;;;7.05;;
69970;SDS011;57301;50.328;8.542;2023-12-07T08:55:47;16.17;;;8.27;;
69970;SDS011;57301;50.328;8.542;2023-12-07T08:58:14;15.25;;;7.57;;
69970;SDS011;57301;50.328;8.542;2023-12-07T09:00:41;14.77;;;8.05;;
69970;SDS011;57301;50.328;8.542;2023-12-07T09:03:07;12.75;;;7.72;;
69970;SDS011;57301;50.328;8.542;2023-12-07T09:05:34;15.90;;;9.13;;
69970;SDS011;57301;50.328;8.542;2023-12-07T09:08:01;16.70;;;8.47;;
69970;SDS011;57301;50.328;8.542;2023-12-07T09:10:27;15.40;;;7.97;;
69970;SDS011;57301;50.328;8.542;2023-12-07T09:12:54;16.20;;;8.05;;
69970;SDS011;57301;50.328;8.542;2023-12-07T09:15:21;14.52;;;8.07;;
69970;SDS011;57301;50.328;8.542;2023-12-07T09:17:48;12.48;;;7.78;;
69970;SDS011;57301;50.328;8.542;2023-12-07T09:20:17;15.27;;;7.60;;
69970;SDS011;57301;50.328;8.542;2023-12-07T09:22:44;12.55;;;8.05;;
69970;SDS011;57301;50.328;8.542;2023-12-07T09:25:13;12.95;;;7.35;;
69970;SDS011;57301;50.328;8.542;2023-12-07T09:27:42;12.02;;;7.50;;
69970;SDS011;57301;50.328;8.542;2023-12-07T09:30:09;13.80;;;7.20;;
69970;SDS011;57301;50.328;8.542;2023-12-07T09:32:40;10.20;;;6.27;;
69970;SDS011;57301;50.328;8.542;2023-12-07T09:35:09;11.38;;;6.97;;
69970;SDS011;57301;50.328;8.542;2023-12-07T09:37:47;12.05;;;7.53;;
69970;SDS011;57301;50.328;8.542;2023-12-07T09:40:17;13.43;;;7.53;;
69970;SDS011;57301;50.328;8.542;2023-12-07T09:42:47;12.73;;;6.95;;
69970;SDS011;57301;50.328;8.542;2023-12-07T09:45:15;11.83;;;7.37;;
69970;SDS011;57301;50.328;8.542;2023-12-07T09:47:48;23.20;;;13.07;;
69970;SDS011;57301;50.328;8.542;2023-12-07T09:50:16;13.32;;;8.45;;
69970;SDS011;57301;50.328;8.542;2023-12-07T09:52:44;13.43;;;8.13;;
69970;SDS011;57301;50.328;8.542;2023-12-07T09:55:25;12.10;;;7.45;;
69970;SDS011;57301;50.328;8.542;2023-12-07T09:57:52;13.37;;;7.10;;
69970;SDS011;57301;50.328;8.542;2023-12-07T10:00:20;13.30;;;8.27;;
69970;SDS011;57301;50.328;8.542;2023-12-07T10:02:47;12.77;;;7.85;;
69970;SDS011;57301;50.328;8.542;2023-12-07T10:05:14;15.10;;;8.32;;
69970;SDS011;57301;50.328;8.542;2023-12-07T10:07:45;15.32;;;7.90;;
69970;SDS011;57301;50.328;8.542;2023-12-07T10:10:16;11.93;;;7.23;;
69970;SDS011;57301;50.328;8.542;2023-12-07T10:13:02;14.73;;;8.50;;
69970;SDS011;57301;50.328;8.542;2023-12-07T10:15:30;14.35;;;7.68;;
69970;SDS011;57301;50.328;8.542;2023-12-07T10:17:57;11.98;;;7.55;;
69970;SDS011;57301;50.328;8.542;2023-12-07T10:20:27;11.38;;;7.15;;
69970;SDS011;57301;50.328;8.542;2023-12-07T10:23:02;13.87;;;7.90;;
69970;SDS011;57301;50.328;8.542;2023-12-07T10:25:35;11.88;;;6.90;;
69970;SDS011;57301;50.328;8.542;2023-12-07T10:28:03;13.60;;;8.40;;
69970;SDS011;57301;50.328;8.542;2023-12-07T10:30:34;17.10;;;10.30;;
69970;SDS011;57301;50.328;8.542;2023-12-07T10:33:05;11.98;;;7.20;;
69970;SDS011;57301;50.328;8.542;2023-12-07T10:35:40;13.30;;;7.47;;
69970;SDS011;57301;50.328;8.542;2023-12-07T10:38:09;13.07;;;6.55;;
69970;SDS011;57301;50.328;8.542;2023-12-07T10:40:36;10.90;;;6.65;;
69970;SDS011;57301;50.328;8.542;2023-12-07T10:43:06;10.02;;;6.00;;
69970;SDS011;57301;50.328;8.542;2023-12-07T10:45:34;13.10;;;8.60;;
69970;SDS011;57301;50.328;8.542;2023-12-07T10:48:07;11.30;;;7.13;;
69970;SDS011;57301;50.328;8.542;2023-12-07T10:50:36;8.15;;;5.40;;
69970;SDS011;57301;50.328;8.542;2023-12-07T10:53:19;8.35;;;5.97;;
69970;SDS011;57301;50.328;8.542;2023-12-07T10:55:55;9.65;;;5.82;;
69970;SDS011;57301;50.328;8.542;2023-12-07T10:58:22;10.10;;;5.90;;
69970;SDS011;57301;50.328;8.542;2023-12-07T11:00:54;10.03;;;6.27;;
69970;SDS011;57301;50.328;8.542;2023-12-07T11:03:22;8.93;;;5.60;;
69970;SDS011;57301;50.328;8.542;2023-12-07T11:05:50;9.50;;;6.07;;
69970;SDS011;57301;50.328;8.542;2023-12-07T11:08:22;9.02;;;6.10;;
69970;SDS011;57301;50.328;8.542;2023-12-07T11:11:23;10.52;;;6.32;;
69970;SDS011;57301;50.328;8.542;2023-12-07T11:13:58;17.10;;;11.43;;
69970;SDS011;57301;50.328;8.542;2023-12-07T11:16:33;14.02;;;7.50;;
69970;SDS011;57301;50.328;8.542;2023-12-07T11:19:02;14.32;;;7.38;;
69970;SDS011;57301;50.328;8.542;2023-12-07T11:21:34;9.70;;;6.18;;
69970;SDS011;57301;50.328;8.542;2023-12-07T11:24:01;9.68;;;6.50;;
69970;SDS011;57301;50.328;8.542;2023-12-07T11:26:28;10.50;;;6.60;;
69970;SDS011;57301;50.328;8.542;2023-12-07T11:28:55;11.65;;;6.00;;
69970;SDS011;57301;50.328;8.542;2023-12-07T11:31:23;9.90;;;6.28;;
69970;SDS011;57301;50.328;8.542;2023-12-07T11:33:50;10.55;;;6.63;;
69970;SDS011;57301;50.328;8.542;2023-12-07T11:36:16;11.15;;;7.22;;
69970;SDS011;57301;50.328;8.542;2023-12-07T11:39:15;10.43;;;6.10;;
69970;SDS011;57301;50.328;8.542;2023-12-07T11:41:53;10.73;;;6.97;;
69970;SDS011;57301;50.328;8.542;2023-12-07T11:44:34;15.45;;;7.93;;
69970;SDS011;57301;50.328;8.542;2023-12-07T11:47:03;10.85;;;7.65;;
69970;SDS011;57301;50.328;8.542;2023-12-07T11:49:31;12.60;;;6.93;;
69970;SDS011;57301;50.328;8.542;2023-12-07T11:52:21;13.07;;;7.93;;
69970;SDS011;57301;50.328;8.542;2023-12-07T11:54:48;12.57;;;7.00;;
69970;SDS011;57301;50.328;8.542;2023-12-07T11:57:17;12.73;;;7.45;;
69970;SDS011;57301;50.328;8.542;2023-12-07T11:59:44;10.73;;;6.53;;
69970;SDS011;57301;50.328;8.542;2023-12-07T12:02:12;13.05;;;6.90;;
69970;SDS011;57301;50.328;8.542;2023-12-07T12:04:39;15.90;;;8.43;;
69970;SDS011;57301;50.328;8.542;2023-12-07T12:07:10;13.02;;;7.60;;
69970;SDS011;57301;50.328;8.542;2023-12-07T12:09:37;13.95;;;8.13;;
69970;SDS011;57301;50.328;8.542;2023-12-07T12:12:03;15.75;;;8.30;;
69970;SDS011;57301;50.328;8.542;2023-12-07T12:14:30;13.52;;;7.95;;
69970;SDS011;57301;50.328;8.542;2023-12-07T12:16:57;15.60;;;8.17;;
69970;SDS011;57301;50.328;8.542;2023-12-07T12:19:24;15.55;;;9.10;;
69970;SDS011;57301;50.328;8.542;2023-12-07T12:22:00;17.55;;;9.93;;
69970;SDS011;57301;50.328;8.542;2023-12-07T12:24:32;15.95;;;9.75;;
69970;SDS011;57301;50.328;8.542;2023-12-07T12:27:00;17.80;;;9.70;;
69970;SDS011;57301;50.328;8.542;2023-12-07T12:29:27;20.13;;;11.20;;
69970;SDS011;57301;50.328;8.542;2023-12-07T12:32:00;23.50;;;11.65;;
69970;SDS011;57301;50.328;8.542;2023-12-07T12:34:34;31.58;;;13.93;;
69970;SDS011;57301;50.328;8.542;2023-12-07T12:37:01;21.77;;;11.48;;
69970;SDS011;57301;50.328;8.542;2023-12-07T12:39:32;22.80;;;11.77;;
69970;SDS011;57301;50.328;8.542;2023-12-07T12:42:00;23.67;;;11.77;;
69970;SDS011;57301;50.328;8.542;2023-12-07T12:44:30;25.15;;;11.85;;
69970;SDS011;57301;50.328;8.542;2023-12-07T12:47:07;21.63;;;11.77;;
69970;SDS011;57301;50.328;8.542;2023-12-07T12:49:39;22.35;;;11.07;;
69970;SDS011;57301;50.328;8.542;2023-12-07T12:52:10;24.65;;;11.95;;
69970;SDS011;57301;50.328;8.542;2023-12-07T12:54:38;25.00;;;12.30;;
69970;SDS011;57301;50.328;8.542;2023-12-07T12:57:08;34.28;;;15.35;;
69970;SDS011;57301;50.328;8.542;2023-12-07T12:59:35;33.15;;;15.40;;
69970;SDS011;57301;50.328;8.542;2023-12-07T13:02:02;31.92;;;13.00;;
69970;SDS011;57301;50.328;8.542;2023-12-07T13:04:32;29.52;;;14.38;;
69970;SDS011;57301;50.328;8.542;2023-12-07T13:07:03;29.13;;;14.23;;
69970;SDS011;57301;50.328;8.542;2023-12-07T13:09:31;33.03;;;15.15;;
69970;SDS011;57301;50.328;8.542;2023-12-07T13:11:58;31.20;;;14.70;;
69970;SDS011;57301;50.328;8.542;2023-12-07T13:14:30;32.67;;;14.85;;
69970;SDS011;57301;50.328;8.542;2023-12-07T13:16:58;31.42;;;14.95;;
69970;SDS011;57301;50.328;8.542;2023-12-07T13:19:24;32.90;;;14.93;;
69970;SDS011;57301;50.328;8.542;2023-12-07T13:21:51;34.65;;;15.23;;
69970;SDS011;57301;50.328;8.542;2023-12-07T13:24:19;34.90;;;14.82;;
69970;SDS011;57301;50.328;8.542;2023-12-07T13:26:49;34.50;;;14.38;;
69970;SDS011;57301;50.328;8.542;2023-12-07T13:29:16;34.10;;;14.55;;
69970;SDS011;57301;50.328;8.542;2023-12-07T13:31:54;31.30;;;13.23;;
69970;SDS011;57301;50.328;8.542;2023-12-07T13:34:21;35.60;;;17.60;;
69970;SDS011;57301;50.328;8.542;2023-12-07T13:36:49;32.00;;;14.30;;
69970;SDS011;57301;50.328;8.542;2023-12-07T13:39:16;32.22;;;14.43;;
69970;SDS011;57301;50.328;8.542;2023-12-07T13:41:56;32.92;;;13.55;;
69970;SDS011;57301;50.328;8.542;2023-12-07T13:44:22;32.83;;;14.00;;
69970;SDS011;57301;50.328;8.542;2023-12-07T13:46:54;36.13;;;16.00;;
69970;SDS011;57301;50.328;8.542;2023-12-07T13:49:21;42.10;;;19.77;;
69970;SDS011;57301;50.328;8.542;2023-12-07T13:51:59;32.60;;;15.65;;
69970;SDS011;57301;50.328;8.542;2023-12-07T13:54:31;38.22;;;15.77;;
69970;SDS011;57301;50.328;8.542;2023-12-07T13:57:18;44.07;;;19.13;;
69970;SDS011;57301;50.328;8.542;2023-12-07T13:59:46;39.17;;;16.27;;
69970;SDS011;57301;50.328;8.542;2023-12-07T14:02:12;37.42;;;15.52;;
69970;SDS011;57301;50.328;8.542;2023-12-07T14:04:39;41.63;;;19.63;;
69970;SDS011;57301;50.328;8.542;2023-12-07T14:07:07;42.47;;;16.42;;
69970;SDS011;57301;50.328;8.542;2023-12-07T14:09:35;35.47;;;14.93;;
69970;SDS011;57301;50.328;8.542;2023-12-07T14:12:15;38.00;;;16.27;;
69970;SDS011;57301;50.328;8.542;2023-12-07T14:14:42;38.58;;;16.48;;
69970;SDS011;57301;50.328;8.542;2023-12-07T14:17:12;37.28;;;15.85;;
69970;SDS011;57301;50.328;8.542;2023-12-07T14:19:45;35.90;;;16.35;;
69970;SDS011;57301;50.328;8.542;2023-12-07T14:22:13;35.93;;;17.27;;
69970;SDS011;57301;50.328;8.542;2023-12-07T14:24:40;71.38;;;37.28;;
69970;SDS011;57301;50.328;8.542;2023-12-07T14:27:07;31.15;;;13.57;;
69970;SDS011;57301;50.328;8.542;2023-12-07T14:29:34;44.28;;;20.63;;
69970;SDS011;57301;50.328;8.542;2023-12-07T14:32:01;88.75;;;42.42;;
69970;SDS011;57301;50.328;8.542;2023-12-07T14:34:30;38.60;;;17.27;;
69970;SDS011;57301;50.328;8.542;2023-12-07T14:37:01;44.95;;;17.58;;